Terminal Aerodrome Forecast
Issued by NWS Atlanta, GA

Home | Current Version | Previous Version | Text Only | Print | Product List | Glossary On
Versions: 1 2 3 4 5 6 7 8 9 10 11 12 13 14 15 16 17
000
FTUS42 KFFC 261515 AAB
TAFMCN
TAF AMD
KMCN 261515Z 2615/2712 07004KT P6SM SCT250
     FM270000 00000KT P6SM BKN250
     FM270800 00000KT 4SM BR BKN200
      TEMPO 2708/2712 1/2SM FG BKN002=

USA.gov is the U.S. government's official web portal to all federal, state and local government web resources and services.